Flight Track Log - Related Links

Times and Time Zones

All times are in EDT time to prevent confusion due to time zone crossing. See the N2744X flight status page for this flight to view local times or setup timezone preferences in your user account.

Time Position Orientation Groundspeed Altitude Reporting Facility
EDT Latitude Longitude Course Direction KTS MPH feet Rate Location/Type
Tue 03:19:51 PM 42.9728 -73.8817 151° Southeast 144 166 5,300  Level Boston Center
Tue 03:20:58 PM 42.9336 -73.8522 151° Southeast 159 183 6,100 843 Climbing Boston Center
Tue 03:21:52 PM 42.8919 -73.8372 165° South 160 184 7,000 887 Climbing Boston Center
Tue 03:22:53 PM 42.8525 -73.8278 170° South 155 178 7,800 496 Climbing Boston Center
Tue 03:23:53 PM 42.8025 -73.8183 172° South 169 194 8,000 99 Climbing Boston Center
Tue 03:24:54 PM 42.7528 -73.8058 170° South 151 174 8,000  Level Boston Center
Tue 03:25:49 PM 42.7028 -73.8103 184° South 188 216 8,000  Level Boston Center
Tue 03:26:49 PM 42.6528 -73.8119 181° South 181 208 8,000  Level Boston Center
Tue 03:27:50 PM 42.6025 -73.8136 181° South 178 205 8,000 -47 Level Boston Center
Tue 03:28:57 PM 42.5506 -73.8125 179° South 178 205 7,900 -47 Descending Boston Center
Tue 03:29:57 PM 42.4983 -73.8114 179° South 180 207 7,900  Level Boston Center
Tue 03:30:58 PM 42.4442 -73.8131 181° South 182 209 7,900  Level Boston Center
Tue 03:32:07 PM 42.3939 -73.8289 193° South 177 204 7,900  Level Boston Center
Tue 03:33:07 PM 42.3581 -73.8675 219° Southwest 166 191 7,900  Level Boston Center
Tue 03:34:07 PM 42.3261 -73.9172 229° Southwest 177 204 7,900  Level Boston Center
Tue 03:35:07 PM 42.2922 -73.9614 224° Southwest 177 204 7,900  Level Boston Center
Tue 03:36:07 PM 42.2625 -74.0111 231° Southwest 177 204 7,900  Level Boston Center
Tue 03:37:07 PM 42.2306 -74.0581 227° Southwest 177 204 7,900 50 Level Boston Center
Tue 03:38:07 PM 42.2006 -74.1106 232° Southwest 177 204 8,000  Climbing Boston Center
Tue 03:39:07 PM 42.1747 -74.1603 235° Southwest 177 204 7,900 -50 Descending Boston Center
Tue 03:40:07 PM 42.1531 -74.2183 243° Southwest 172 198 7,900  Level Boston Center
Tue 03:41:07 PM 42.1292 -74.2736 240° Southwest 172 198 7,900  Level Boston Center
Tue 03:42:07 PM 42.1014 -74.3233 233° Southwest 177 204 7,900  Level Boston Center
Tue 03:43:07 PM 42.0692 -74.3725 229° Southwest 177 204 7,900 -232 Level Boston Center
Tue 03:44:42 PM 42.0167 -74.4500 228° Southwest 177 204 7,300 -387 Descending New York TRACON
Tue 03:45:42 PM 41.9833 -74.5000 228° Southwest 181 208 6,900 -450 Descending New York TRACON
Tue 03:46:42 PM 41.9500 -74.5500 228° Southwest 181 208 6,400 -500 Descending New York TRACON
Tue 03:47:42 PM 41.9167 -74.6000 228° Southwest 183 211 5,900 -350 Descending New York TRACON
Tue 03:48:42 PM 41.8667 -74.6333 206° Southwest 186 214 5,700 -500 Descending New York TRACON
Tue 03:49:42 PM 41.8167 -74.6333 180° South 200 230 4,900 -300 Descending New York TRACON
Tue 03:50:42 PM 41.7667 -74.6500 194° South 180 207 5,100 50 Climbing New York TRACON
Tue 03:51:42 PM 41.7167 -74.6333 166° South 174 200 5,000 -50 Descending New York TRACON
Tue 03:52:42 PM 41.6667 -74.6333 180° South 168 193 5,000 50 Level New York TRACON
Tue 03:53:42 PM 41.6333 -74.6167 160° South 174 200 5,100 -100 Climbing New York TRACON
Tue 03:54:42 PM 41.6000 -74.5667 132° Southeast 181 208 4,800 -650 Descending New York TRACON
Tue 03:55:42 PM 41.5833 -74.5000 108° East 193 222 3,800 -900 Descending New York TRACON
Tue 03:56:42 PM 41.5667 -74.4333 108° East 182 209 3,000 -600 Descending New York TRACON
Tue 03:57:42 PM 41.5333 -74.3833 132° Southeast 160 184 2,600 -450 Descending New York TRACON
Tue 03:58:42 PM 41.5167 -74.3333 114° Southeast 151 174 2,100 -650 Descending New York TRACON
Tue 03:59:42 PM 41.5000 -74.3000 124° Southeast 108 124 1,300 -800 Descending New York TRACON
Tue 04:01:00 PM 41.5100 -74.2646 113° Southeast  Level Estimated
Tue 04:08:00 PM 41.5100 -74.2646 113° Southeast  Level Estimated
Tue 04:09:00 PM 41.5100 -74.2646 113° Southeast  Level Estimated
Tue 04:10:00 PM 41.5100 -74.2646 113° Southeast  Level Estimated

Login

Don't have an account? Register now (free) for customized features, flight alerts, and more!